Time;durP1;ratioP1;P1;durP2;ratioP2;P2;SDS_P1;SDS_P2;PMS_P1;PMS_P2;Temp;Humidity;BMP_temperature;BMP_pressure;BME280_temperature;BME280_humidity;BME280_pressure;Samples;Min_cycle;Max_cycle;Signal;HPM_P1;HPM_P2
2022/01/21 00:00:58;;;;;;;3.03;1.40;;;;;;;;;;4934725;29;20024;-72
2022/01/21 00:03:25;;;;;;;6.00;1.10;;;;;;;;;;4934993;29;20030;-73
2022/01/21 00:05:52;;;;;;;3.00;1.17;;;;;;;;;;4934756;29;20057;-72
2022/01/21 00:08:18;;;;;;;6.18;1.73;;;;;;;;;;4935592;29;20038;-72
2022/01/21 00:10:44;;;;;;;4.25;1.30;;;;;;;;;;4934802;29;20035;-72
2022/01/21 00:13:20;;;;;;;4.57;1.10;;;;;;;;;;4934876;29;20015;-72
2022/01/21 00:15:46;;;;;;;3.72;1.15;;;;;;;;;;4965722;28;20035;-72
2022/01/21 00:18:13;;;;;;;3.50;1.10;;;;;;;;;;4934679;29;20023;-72
2022/01/21 00:31:40;;;;;;;2.53;0.80;;;;;;;;;;4934695;29;20028;-72
2022/01/21 00:34:06;;;;;;;1.50;0.80;;;;;;;;;;4934529;29;20034;-72
2022/01/21 00:36:33;;;;;;;2.92;0.82;;;;;;;;;;4934400;29;20212;-72
2022/01/21 00:38:59;;;;;;;4.10;0.90;;;;;;;;;;4934665;29;20070;-72
2022/01/21 00:41:30;;;;;;;3.50;0.80;;;;;;;;;;4935096;29;20034;-73
2022/01/21 00:43:56;;;;;;;1.58;0.77;;;;;;;;;;4933994;29;20392;-72
2022/01/21 00:46:23;;;;;;;2.85;0.68;;;;;;;;;;4934270;29;20050;-72
2022/01/21 00:48:49;;;;;;;4.82;0.95;;;;;;;;;;4934019;29;20023;-72
2022/01/21 00:51:15;;;;;;;2.90;0.98;;;;;;;;;;4934479;29;20496;-72
2022/01/21 00:53:42;;;;;;;6.32;0.80;;;;;;;;;;4935140;29;20050;-73
2022/01/21 00:56:08;;;;;;;2.95;0.80;;;;;;;;;;4934604;29;20493;-72
2022/01/21 00:58:34;;;;;;;2.38;0.93;;;;;;;;;;4934041;29;20019;-72
2022/01/21 01:01:01;;;;;;;1.25;0.60;;;;;;;;;;4934300;29;20053;-72
2022/01/21 01:03:27;;;;;;;1.63;0.93;;;;;;;;;;4965106;28;20027;-72
2022/01/21 01:05:54;;;;;;;3.85;0.85;;;;;;;;;;4934095;29;20048;-72
2022/01/21 01:08:20;;;;;;;1.75;0.65;;;;;;;;;;4934652;29;20057;-72
2022/01/21 01:21:23;;;;;;;3.33;1.00;;;;;;;;;;4933941;29;20032;-73
2022/01/21 01:24:03;;;;;;;2.85;0.88;;;;;;;;;;4933981;29;20430;-72
2022/01/21 01:29:17;;;;;;;1.90;0.90;;;;;;;;;;4934487;29;20030;-73
2022/01/21 01:31:43;;;;;;;5.38;1.20;;;;;;;;;;4933849;29;20053;-72
2022/01/21 01:34:10;;;;;;;4.60;1.08;;;;;;;;;;4934056;29;20034;-72
2022/01/21 01:36:37;;;;;;;3.35;1.13;;;;;;;;;;4934132;29;20032;-73
2022/01/21 01:41:46;;;;;;;1.42;0.82;;;;;;;;;;4937923;29;20024;-72
2022/01/21 01:49:42;;;;;;;4.45;0.93;;;;;;;;;;4937454;29;20038;-72
2022/01/21 01:52:10;;;;;;;1.70;0.90;;;;;;;;;;4937601;29;20019;-72
2022/01/21 01:54:38;;;;;;;5.07;1.10;;;;;;;;;;4937403;29;20020;-72
2022/01/21 01:57:05;;;;;;;3.80;1.40;;;;;;;;;;4936950;29;20400;-72
2022/01/21 01:59:32;;;;;;;6.95;1.20;;;;;;;;;;4952586;29;20515;-72
2022/01/21 02:02:00;;;;;;;2.55;1.20;;;;;;;;;;4937102;29;20043;-72
2022/01/21 02:04:26;;;;;;;2.88;1.27;;;;;;;;;;4937336;29;20038;-72
2022/01/21 02:06:53;;;;;;;4.30;1.42;;;;;;;;;;4936970;29;20509;-72
2022/01/21 02:09:20;;;;;;;2.97;1.17;;;;;;;;;;4937280;29;20016;-72
2022/01/21 02:11:47;;;;;;;2.08;0.90;;;;;;;;;;4937021;29;20034;-72
2022/01/21 02:14:20;;;;;;;6.13;1.77;;;;;;;;;;4935433;29;20039;-72
2022/01/21 02:22:11;;;;;;;1.70;1.05;;;;;;;;;;4936820;29;20034;-72
2022/01/21 02:24:51;;;;;;;4.28;1.30;;;;;;;;;;4936479;29;20026;-72
2022/01/21 02:27:17;;;;;;;4.22;1.17;;;;;;;;;;4936711;29;20036;-72
2022/01/21 02:30:00;;;;;;;2.17;1.10;;;;;;;;;;4937088;29;20487;-72
2022/01/21 02:32:26;;;;;;;3.92;0.95;;;;;;;;;;4935937;29;20511;-72
2022/01/21 02:34:53;;;;;;;1.88;1.00;;;;;;;;;;4936761;29;20023;-72
2022/01/21 02:37:20;;;;;;;1.92;0.95;;;;;;;;;;4936638;28;20086;-72
2022/01/21 02:39:46;;;;;;;1.80;1.02;;;;;;;;;;4936153;28;20412;-72
2022/01/21 02:42:13;;;;;;;1.60;0.95;;;;;;;;;;4936594;29;20024;-72
2022/01/21 02:44:39;;;;;;;2.75;0.82;;;;;;;;;;4937300;29;20039;-72
2022/01/21 02:47:06;;;;;;;1.85;0.98;;;;;;;;;;4936369;29;20032;-72
2022/01/21 02:49:33;;;;;;;2.92;0.90;;;;;;;;;;4936702;29;20038;-72
2022/01/21 02:52:01;;;;;;;2.78;0.90;;;;;;;;;;4935427;29;20020;-72
2022/01/21 02:54:32;;;;;;;4.13;0.95;;;;;;;;;;4966862;28;20027;-72
2022/01/21 02:56:58;;;;;;;3.72;1.00;;;;;;;;;;4936440;29;20028;-72
2022/01/21 02:59:25;;;;;;;3.28;0.90;;;;;;;;;;4936767;29;20035;-72
2022/01/21 03:01:51;;;;;;;2.80;0.95;;;;;;;;;;4936167;29;20046;-72
2022/01/21 03:04:29;;;;;;;3.67;1.08;;;;;;;;;;4936232;29;20489;-72
2022/01/21 03:06:55;;;;;;;3.28;1.00;;;;;;;;;;4935878;29;20031;-72
2022/01/21 03:09:22;;;;;;;1.27;0.60;;;;;;;;;;4935660;29;20019;-72
2022/01/21 03:11:48;;;;;;;5.75;1.30;;;;;;;;;;4936140;29;20032;-72
2022/01/21 03:14:14;;;;;;;3.53;1.10;;;;;;;;;;4936599;29;20030;-72
2022/01/21 03:16:41;;;;;;;1.98;0.70;;;;;;;;;;4936075;29;20036;-72
2022/01/21 03:19:07;;;;;;;3.70;0.80;;;;;;;;;;4935866;29;20722;-72
2022/01/21 03:21:33;;;;;;;2.88;1.17;;;;;;;;;;4936206;29;20031;-72
2022/01/21 03:24:00;;;;;;;1.50;0.88;;;;;;;;;;4935511;29;20520;-72
2022/01/21 03:26:27;;;;;;;3.13;0.90;;;;;;;;;;4936418;29;20040;-72
2022/01/21 03:28:54;;;;;;;2.15;1.10;;;;;;;;;;4935805;29;20023;-72
2022/01/21 03:31:21;;;;;;;4.45;0.90;;;;;;;;;;4935657;28;20027;-72
2022/01/21 03:33:47;;;;;;;3.55;0.88;;;;;;;;;;4935603;29;20026;-72
2022/01/21 03:36:14;;;;;;;2.35;0.93;;;;;;;;;;4935653;29;20036;-72
2022/01/21 03:38:41;;;;;;;1.83;0.80;;;;;;;;;;4935821;29;20027;-72
2022/01/21 03:41:07;;;;;;;3.65;1.17;;;;;;;;;;4935738;29;20042;-72
2022/01/21 03:43:34;;;;;;;2.70;1.02;;;;;;;;;;4935420;29;20437;-72
2022/01/21 03:46:01;;;;;;;1.70;0.90;;;;;;;;;;4966220;28;20039;-72
2022/01/21 03:48:27;;;;;;;2.38;0.80;;;;;;;;;;4935526;29;20030;-72
2022/01/21 03:50:53;;;;;;;2.53;1.20;;;;;;;;;;4935578;29;20066;-72
2022/01/21 03:53:20;;;;;;;4.13;1.10;;;;;;;;;;4935557;29;20440;-72
2022/01/21 03:55:46;;;;;;;1.63;0.65;;;;;;;;;;4935005;28;20110;-72
2022/01/21 03:58:13;;;;;;;7.18;1.08;;;;;;;;;;4935406;29;20038;-72
2022/01/21 04:00:41;;;;;;;2.47;1.00;;;;;;;;;;4935062;29;20032;-72
2022/01/21 04:03:07;;;;;;;4.53;1.35;;;;;;;;;;4934869;29;20581;-72
2022/01/21 04:05:35;;;;;;;2.35;1.15;;;;;;;;;;4935199;29;20110;-72
2022/01/21 04:08:02;;;;;;;2.22;1.00;;;;;;;;;;4934855;29;20493;-72
2022/01/21 04:10:28;;;;;;;4.72;1.00;;;;;;;;;;4935072;29;20408;-72
2022/01/21 04:12:55;;;;;;;2.22;1.05;;;;;;;;;;4965951;28;20019;-71
2022/01/21 04:15:22;;;;;;;2.30;0.80;;;;;;;;;;4934923;29;20031;-72
2022/01/21 04:17:49;;;;;;;4.10;1.08;;;;;;;;;;4934984;29;20032;-72
2022/01/21 04:20:16;;;;;;;4.40;1.15;;;;;;;;;;4949857;29;20417;-72
2022/01/21 04:22:43;;;;;;;2.70;1.33;;;;;;;;;;4934742;29;20032;-72
2022/01/21 04:25:10;;;;;;;3.33;1.20;;;;;;;;;;4934603;29;20051;-72
2022/01/21 04:27:36;;;;;;;5.88;1.30;;;;;;;;;;4934678;29;20020;-72
2022/01/21 04:30:07;;;;;;;4.82;1.30;;;;;;;;;;4964514;28;20051;-72
2022/01/21 04:32:33;;;;;;;2.70;0.98;;;;;;;;;;4935193;29;20028;-72
2022/01/21 04:35:00;;;;;;;2.47;1.02;;;;;;;;;;4934265;29;20024;-72
2022/01/21 04:37:26;;;;;;;1.70;0.90;;;;;;;;;;4934316;29;20035;-72
2022/01/21 04:40:00;;;;;;;1.75;0.93;;;;;;;;;;4934532;29;20024;-72
2022/01/21 04:47:56;;;;;;;4.32;1.13;;;;;;;;;;4934427;29;20396;-72
2022/01/21 04:50:25;;;;;;;6.43;1.27;;;;;;;;;;4934706;29;20058;-72
2022/01/21 04:52:51;;;;;;;3.83;0.95;;;;;;;;;;4934255;29;20095;-72
2022/01/21 04:55:17;;;;;;;3.75;1.05;;;;;;;;;;4934196;28;20027;-72
2022/01/21 04:57:44;;;;;;;3.97;1.00;;;;;;;;;;4934258;29;20031;-72
2022/01/21 05:00:11;;;;;;;4.03;1.10;;;;;;;;;;4919020;29;20016;-72
2022/01/21 05:02:37;;;;;;;4.75;1.15;;;;;;;;;;4934910;29;20452;-72
2022/01/21 05:05:05;;;;;;;2.03;0.90;;;;;;;;;;4933450;29;20040;-72
2022/01/21 05:07:35;;;;;;;2.65;1.30;;;;;;;;;;4934093;29;20032;-72
2022/01/21 05:10:03;;;;;;;2.03;0.90;;;;;;;;;;4933966;29;20024;-72
2022/01/21 05:12:30;;;;;;;3.92;1.20;;;;;;;;;;4934181;29;20042;-72
2022/01/21 05:17:23;;;;;;;4.22;1.17;;;;;;;;;;4934537;29;20035;-72
2022/01/21 05:19:50;;;;;;;6.78;1.20;;;;;;;;;;4933559;29;20039;-72
2022/01/21 05:22:17;;;;;;;4.88;0.93;;;;;;;;;;4934226;29;20020;-72
2022/01/21 05:24:43;;;;;;;2.63;1.00;;;;;;;;;;4933978;29;20028;-72
2022/01/21 05:27:11;;;;;;;4.00;1.10;;;;;;;;;;4934040;29;20044;-72
2022/01/21 05:29:38;;;;;;;2.08;1.00;;;;;;;;;;4930404;29;20028;-72
2022/01/21 05:32:07;;;;;;;4.45;0.93;;;;;;;;;;4933934;29;20038;-72
2022/01/21 05:34:34;;;;;;;2.67;1.00;;;;;;;;;;4933418;29;20032;-72
2022/01/21 05:37:00;;;;;;;3.92;0.98;;;;;;;;;;4933783;29;20028;-72
2022/01/21 05:39:26;;;;;;;2.63;0.85;;;;;;;;;;4934068;29;20019;-72
2022/01/21 05:41:53;;;;;;;3.25;0.93;;;;;;;;;;4933783;29;20036;-72
2022/01/21 05:46:58;;;;;;;4.20;1.20;;;;;;;;;;4933293;29;20043;-71
2022/01/21 05:49:25;;;;;;;4.45;1.40;;;;;;;;;;4933531;29;20038;-72
2022/01/21 05:52:03;;;;;;;8.02;2.00;;;;;;;;;;4933625;29;20030;-72
2022/01/21 05:54:30;;;;;;;3.20;1.33;;;;;;;;;;4933702;29;20023;-72
2022/01/21 05:56:56;;;;;;;5.05;1.30;;;;;;;;;;4933763;29;20038;-72
2022/01/21 05:59:23;;;;;;;3.10;1.33;;;;;;;;;;4934120;29;20035;-72
2022/01/21 06:01:50;;;;;;;2.72;1.05;;;;;;;;;;4952259;28;20030;-72
2022/01/21 06:04:17;;;;;;;2.78;1.10;;;;;;;;;;4933737;29;20078;-72
2022/01/21 06:06:43;;;;;;;5.97;1.30;;;;;;;;;;4933513;29;20054;-72
2022/01/21 06:09:09;;;;;;;4.00;1.33;;;;;;;;;;4963767;28;20030;-72
2022/01/21 06:11:36;;;;;;;3.13;1.20;;;;;;;;;;4934150;29;20032;-72
2022/01/21 06:14:03;;;;;;;1.42;0.82;;;;;;;;;;4933452;29;20030;-72
2022/01/21 06:16:29;;;;;;;4.63;1.23;;;;;;;;;;4933308;29;20042;-72
2022/01/21 06:18:56;;;;;;;3.30;1.35;;;;;;;;;;4933509;29;20070;-72
2022/01/21 06:21:23;;;;;;;2.30;1.00;;;;;;;;;;4933485;29;20035;-72
2022/01/21 06:23:49;;;;;;;2.92;1.20;;;;;;;;;;4933478;29;20407;-72
2022/01/21 06:26:15;;;;;;;1.67;1.10;;;;;;;;;;4935599;29;20054;-72
2022/01/21 06:28:42;;;;;;;2.83;1.10;;;;;;;;;;4936604;28;20027;-72
2022/01/21 06:31:08;;;;;;;2.92;0.95;;;;;;;;;;4936365;29;20030;-72
2022/01/21 06:33:34;;;;;;;4.82;1.48;;;;;;;;;;4937045;29;20031;-72
2022/01/21 06:36:01;;;;;;;3.72;1.30;;;;;;;;;;4936831;29;25478;-72
2022/01/21 06:38:28;;;;;;;2.72;1.10;;;;;;;;;;4952299;29;20035;-72
2022/01/21 06:40:54;;;;;;;3.10;1.00;;;;;;;;;;4936880;29;20032;-72
2022/01/21 06:43:21;;;;;;;3.33;0.95;;;;;;;;;;4936596;29;20102;-72
2022/01/21 06:45:47;;;;;;;4.50;1.13;;;;;;;;;;4936170;28;20043;-72
2022/01/21 06:48:14;;;;;;;4.25;1.15;;;;;;;;;;4936381;29;20506;-72
2022/01/21 06:50:41;;;;;;;6.57;1.77;;;;;;;;;;4937438;29;20036;-72
2022/01/21 06:53:08;;;;;;;4.13;1.13;;;;;;;;;;4936727;29;20028;-72
2022/01/21 06:55:35;;;;;;;5.05;1.20;;;;;;;;;;4936275;29;20036;-72
2022/01/21 06:58:01;;;;;;;5.57;1.45;;;;;;;;;;4936130;28;20038;-72
2022/01/21 07:00:27;;;;;;;4.15;1.85;;;;;;;;;;4935905;29;20078;-72
2022/01/21 07:02:54;;;;;;;5.53;1.20;;;;;;;;;;4935655;29;20485;-72
2022/01/21 07:05:31;;;;;;;2.65;1.60;;;;;;;;;;4934214;29;20055;-73
2022/01/21 07:07:59;;;;;;;4.85;1.75;;;;;;;;;;4935567;29;20024;-72
2022/01/21 07:10:27;;;;;;;3.53;1.08;;;;;;;;;;4932568;29;20024;-72
2022/01/21 07:12:53;;;;;;;5.75;1.38;;;;;;;;;;4935747;29;20028;-72
2022/01/21 07:15:20;;;;;;;2.55;1.25;;;;;;;;;;4935424;29;20489;-72
2022/01/21 07:17:47;;;;;;;4.15;1.45;;;;;;;;;;4935786;29;20028;-72
2022/01/21 07:20:15;;;;;;;7.72;2.35;;;;;;;;;;4936530;29;20032;-72
2022/01/21 07:22:41;;;;;;;4.07;1.52;;;;;;;;;;4935869;29;20028;-72
2022/01/21 07:25:08;;;;;;;2.75;1.40;;;;;;;;;;4934866;29;20046;-72
2022/01/21 07:27:34;;;;;;;6.25;1.42;;;;;;;;;;4935768;29;20016;-72
2022/01/21 07:30:01;;;;;;;5.38;1.30;;;;;;;;;;4935085;29;20062;-72
2022/01/21 07:32:27;;;;;;;2.05;1.10;;;;;;;;;;4938433;29;20391;-72
2022/01/21 07:34:54;;;;;;;4.00;1.25;;;;;;;;;;4936538;28;20388;-72
2022/01/21 07:37:20;;;;;;;4.82;1.92;;;;;;;;;;4933846;29;20030;-72
2022/01/21 07:39:47;;;;;;;7.20;1.63;;;;;;;;;;4935059;29;20023;-72
2022/01/21 07:42:13;;;;;;;4.05;2.08;;;;;;;;;;4934212;29;20023;-72
2022/01/21 07:44:39;;;;;;;6.38;2.05;;;;;;;;;;4934928;29;20032;-72
2022/01/21 07:47:06;;;;;;;3.72;1.60;;;;;;;;;;4934717;28;20028;-72
2022/01/21 07:49:32;;;;;;;5.43;1.88;;;;;;;;;;4934048;29;20051;-72
2022/01/21 07:52:00;;;;;;;2.47;1.40;;;;;;;;;;4934956;29;20056;-72
2022/01/21 07:54:26;;;;;;;3.28;1.40;;;;;;;;;;4934929;29;20038;-72
2022/01/21 07:56:53;;;;;;;2.60;1.15;;;;;;;;;;4934955;29;20394;-72
2022/01/21 07:59:19;;;;;;;4.80;1.63;;;;;;;;;;4935063;29;20027;-72
2022/01/21 08:01:46;;;;;;;4.32;1.40;;;;;;;;;;4934140;29;20039;-72
2022/01/21 08:04:12;;;;;;;5.32;1.83;;;;;;;;;;4934985;29;20027;-72
2022/01/21 08:06:38;;;;;;;4.57;1.45;;;;;;;;;;4965156;28;20054;-72
2022/01/21 08:09:05;;;;;;;4.22;1.40;;;;;;;;;;4934300;29;20028;-73
2022/01/21 08:11:32;;;;;;;3.05;1.15;;;;;;;;;;4934878;29;20046;-72
2022/01/21 08:13:58;;;;;;;4.07;1.50;;;;;;;;;;4932922;29;20027;-72
2022/01/21 08:16:24;;;;;;;5.60;1.38;;;;;;;;;;4934340;29;20500;-72
2022/01/21 08:18:52;;;;;;;4.15;1.25;;;;;;;;;;4932743;29;20106;-73
2022/01/21 08:21:18;;;;;;;2.50;1.45;;;;;;;;;;4932445;29;20030;-71
2022/01/21 08:23:49;;;;;;;5.88;1.60;;;;;;;;;;4933468;29;20030;-73
2022/01/21 08:26:15;;;;;;;7.05;1.65;;;;;;;;;;4933087;29;20032;-73
2022/01/21 08:28:41;;;;;;;3.10;1.10;;;;;;;;;;4932543;29;20031;-73
2022/01/21 08:31:08;;;;;;;3.70;1.25;;;;;;;;;;4933482;29;20038;-74
2022/01/21 08:33:34;;;;;;;4.57;1.30;;;;;;;;;;4933626;28;20042;-73
2022/01/21 08:36:00;;;;;;;4.03;1.70;;;;;;;;;;4964058;28;20032;-74
2022/01/21 08:38:27;;;;;;;3.28;1.45;;;;;;;;;;4933824;29;20499;-74
2022/01/21 08:40:53;;;;;;;3.22;1.00;;;;;;;;;;4933603;29;20028;-74
2022/01/21 08:43:19;;;;;;;6.18;1.60;;;;;;;;;;4933209;29;20023;-74
2022/01/21 08:45:46;;;;;;;3.15;1.30;;;;;;;;;;4948858;28;20032;-74
2022/01/21 08:48:12;;;;;;;3.95;1.25;;;;;;;;;;4933138;29;20020;-72
2022/01/21 08:50:39;;;;;;;4.03;1.42;;;;;;;;;;4932847;29;20496;-74
2022/01/21 08:53:41;;;;;;;4.07;1.58;;;;;;;;;;4932844;29;20031;-73
2022/01/21 08:55:58;;;;;;;3.78;1.65;;;;;;;;;;4931244;29;20043;-73
2022/01/21 08:58:25;;;;;;;4.32;1.20;;;;;;;;;;4931968;29;20027;-74
2022/01/21 09:00:51;;;;;;;3.80;1.58;;;;;;;;;;4932178;29;20024;-74
2022/01/21 09:03:18;;;;;;;3.33;1.40;;;;;;;;;;4933220;29;20024;-73
2022/01/21 09:05:48;;;;;;;4.22;1.30;;;;;;;;;;4933117;29;20055;-74
2022/01/21 09:08:16;;;;;;;3.50;1.40;;;;;;;;;;4932717;29;20042;-73
2022/01/21 09:10:42;;;;;;;2.88;1.60;;;;;;;;;;4932321;29;20030;-74
2022/01/21 09:13:08;;;;;;;3.47;1.15;;;;;;;;;;4958632;28;20038;-74
2022/01/21 09:15:36;;;;;;;2.90;1.42;;;;;;;;;;4931941;29;20038;-74
2022/01/21 09:18:04;;;;;;;3.08;1.33;;;;;;;;;;4932643;29;20042;-74
2022/01/21 09:20:32;;;;;;;3.63;1.42;;;;;;;;;;4933128;29;20396;-74
2022/01/21 09:22:58;;;;;;;7.63;2.33;;;;;;;;;;4932950;29;20527;-75
2022/01/21 09:25:24;;;;;;;3.00;1.35;;;;;;;;;;4932275;29;20031;-72
2022/01/21 09:27:51;;;;;;;1.70;1.23;;;;;;;;;;4932672;29;20019;-73
2022/01/21 09:30:17;;;;;;;4.15;1.30;;;;;;;;;;4932651;29;20039;-73
2022/01/21 09:32:44;;;;;;;1.98;1.08;;;;;;;;;;4959537;28;20027;-72
2022/01/21 09:35:10;;;;;;;4.28;1.50;;;;;;;;;;4932205;29;20030;-73
2022/01/21 09:37:37;;;;;;;5.20;1.40;;;;;;;;;;4932441;28;20404;-72
2022/01/21 09:40:05;;;;;;;2.03;1.27;;;;;;;;;;4932159;29;20027;-73
2022/01/21 09:42:35;;;;;;;3.92;1.27;;;;;;;;;;4932594;29;20034;-72
2022/01/21 09:45:04;;;;;;;4.13;1.20;;;;;;;;;;4932625;29;20400;-72
2022/01/21 09:47:32;;;;;;;2.58;1.27;;;;;;;;;;4932727;29;20046;-73
2022/01/21 09:49:58;;;;;;;3.33;1.20;;;;;;;;;;4932521;29;20497;-73
2022/01/21 09:52:25;;;;;;;2.47;1.05;;;;;;;;;;4931093;29;20036;-73
2022/01/21 09:54:53;;;;;;;6.78;1.30;;;;;;;;;;4932139;29;20028;-72
2022/01/21 09:57:23;;;;;;;4.15;1.30;;;;;;;;;;4931497;29;20443;-72
2022/01/21 09:59:55;;;;;;;1.95;1.15;;;;;;;;;;4932527;29;20028;-73
2022/01/21 10:02:22;;;;;;;4.03;1.00;;;;;;;;;;4936363;29;20032;-73
2022/01/21 10:04:49;;;;;;;2.88;0.82;;;;;;;;;;4936349;29;20038;-72
2022/01/21 10:07:17;;;;;;;1.50;1.23;;;;;;;;;;4935256;29;20423;-73
2022/01/21 10:09:44;;;;;;;1.77;0.98;;;;;;;;;;4935480;29;20023;-73
2022/01/21 10:12:11;;;;;;;3.30;1.00;;;;;;;;;;4936223;29;20027;-72
2022/01/21 10:14:41;;;;;;;2.05;1.10;;;;;;;;;;4936294;29;20027;-74
2022/01/21 10:17:08;;;;;;;4.15;1.05;;;;;;;;;;4935456;29;20030;-73
2022/01/21 10:19:35;;;;;;;2.60;1.20;;;;;;;;;;4935867;29;20073;-73
2022/01/21 10:22:06;;;;;;;4.00;1.40;;;;;;;;;;4935462;29;20019;-72
2022/01/21 10:24:33;;;;;;;5.75;1.75;;;;;;;;;;4934173;29;20036;-73
2022/01/21 10:27:00;;;;;;;2.67;1.20;;;;;;;;;;4935090;29;20047;-72
2022/01/21 10:29:43;;;;;;;4.47;1.23;;;;;;;;;;4936202;29;20030;-73
2022/01/21 10:32:09;;;;;;;3.50;1.92;;;;;;;;;;4935812;29;20036;-72
2022/01/21 10:34:43;;;;;;;2.47;1.58;;;;;;;;;;4935350;29;20042;-73
2022/01/21 10:37:31;;;;;;;3.08;1.35;;;;;;;;;;4935225;29;20341;-73
2022/01/21 10:40:04;;;;;;;2.03;1.25;;;;;;;;;;4935413;29;20436;-73
2022/01/21 10:42:30;;;;;;;4.80;1.58;;;;;;;;;;4935188;29;20042;-72
2022/01/21 10:44:57;;;;;;;3.78;1.42;;;;;;;;;;4935217;29;20031;-72
2022/01/21 10:47:31;;;;;;;3.42;1.30;;;;;;;;;;4932813;29;20039;-72
2022/01/21 10:50:03;;;;;;;3.88;2.78;;;;;;;;;;4949204;28;20508;-73
2022/01/21 10:52:32;;;;;;;4.00;1.40;;;;;;;;;;4934383;29;20036;-73
2022/01/21 10:54:59;;;;;;;2.92;1.20;;;;;;;;;;4935031;29;20026;-73
2022/01/21 10:57:29;;;;;;;1.85;0.98;;;;;;;;;;4934902;29;20058;-73
2022/01/21 10:59:55;;;;;;;3.70;1.30;;;;;;;;;;4934596;29;20393;-73
2022/01/21 11:02:31;;;;;;;3.97;1.10;;;;;;;;;;4934978;29;20019;-73
2022/01/21 11:05:00;;;;;;;3.42;1.60;;;;;;;;;;4933946;29;20038;-73
2022/01/21 11:07:47;;;;;;;4.32;1.42;;;;;;;;;;4933958;29;20528;-73
2022/01/21 11:10:32;;;;;;;2.55;1.48;;;;;;;;;;4934592;29;20032;-73
2022/01/21 11:13:22;;;;;;;4.47;1.77;;;;;;;;;;4933395;28;20054;-73
2022/01/21 11:15:49;;;;;;;3.95;2.05;;;;;;;;;;4933135;28;20044;-72
2022/01/21 11:18:19;;;;;;;1.75;1.30;;;;;;;;;;4934873;29;20023;-73
2022/01/21 11:20:48;;;;;;;1.70;1.10;;;;;;;;;;4934238;29;20042;-73
2022/01/21 11:23:15;;;;;;;2.22;1.38;;;;;;;;;;4934995;29;20082;-73
2022/01/21 11:25:42;;;;;;;1.98;1.30;;;;;;;;;;4933807;29;20030;-73
2022/01/21 11:28:09;;;;;;;2.45;1.20;;;;;;;;;;4934207;29;20040;-73
2022/01/21 11:30:36;;;;;;;3.17;1.35;;;;;;;;;;4934034;29;20023;-73
2022/01/21 11:33:02;;;;;;;3.85;1.25;;;;;;;;;;4934879;29;20026;-74
2022/01/21 11:35:29;;;;;;;3.22;1.50;;;;;;;;;;4933522;29;20030;-74
2022/01/21 11:37:56;;;;;;;2.78;1.30;;;;;;;;;;4964984;28;20057;-74
2022/01/21 11:40:23;;;;;;;2.97;1.25;;;;;;;;;;4934303;29;20023;-74
2022/01/21 11:42:50;;;;;;;5.65;1.58;;;;;;;;;;4934385;29;20032;-74
2022/01/21 11:50:43;;;;;;;4.63;1.70;;;;;;;;;;4934667;29;20039;-74
2022/01/21 11:53:09;;;;;;;2.10;1.30;;;;;;;;;;4934804;29;20090;-75
2022/01/21 11:55:38;;;;;;;3.38;1.65;;;;;;;;;;4934923;29;20042;-74
2022/01/21 11:58:12;;;;;;;4.82;2.17;;;;;;;;;;4935090;29;20026;-75
2022/01/21 12:00:40;;;;;;;6.68;2.45;;;;;;;;;;4935075;29;20512;-74
2022/01/21 12:03:07;;;;;;;6.18;2.65;;;;;;;;;;4935037;29;20036;-74
2022/01/21 12:05:34;;;;;;;4.55;1.98;;;;;;;;;;4935205;29;20040;-74
2022/01/21 12:08:04;;;;;;;3.90;1.70;;;;;;;;;;4934495;28;20039;-74
2022/01/21 12:10:35;;;;;;;2.45;1.52;;;;;;;;;;4934918;29;20027;-75
2022/01/21 12:13:08;;;;;;;2.95;1.73;;;;;;;;;;4934876;29;20038;-73
2022/01/21 12:20:43;;;;;;;3.30;1.90;;;;;;;;;;4935028;29;20031;-74
2022/01/21 12:23:12;;;;;;;4.72;1.90;;;;;;;;;;4934656;29;20034;-74
2022/01/21 12:25:57;;;;;;;3.65;1.50;;;;;;;;;;4934519;29;20023;-74
2022/01/21 12:28:23;;;;;;;5.30;2.47;;;;;;;;;;4934444;29;20440;-74
2022/01/21 12:30:53;;;;;;;4.32;1.70;;;;;;;;;;4934501;29;20408;-74
2022/01/21 12:33:20;;;;;;;3.53;1.50;;;;;;;;;;4934442;29;20026;-74
2022/01/21 12:35:47;;;;;;;3.80;1.75;;;;;;;;;;4934383;29;20559;-74
2022/01/21 12:40:55;;;;;;;6.60;1.67;;;;;;;;;;4932777;29;20090;-74
2022/01/21 12:43:38;;;;;;;2.70;1.50;;;;;;;;;;4933694;29;20446;-74
2022/01/21 12:46:06;;;;;;;4.78;1.95;;;;;;;;;;4952090;28;20570;-73
2022/01/21 12:48:36;;;;;;;3.15;1.60;;;;;;;;;;4933767;29;20016;-74
2022/01/21 12:52:08;;;;;;;4.55;2.08;;;;;;;;;;4933630;29;20032;-75
2022/01/21 12:55:55;;;;;;;4.13;1.60;;;;;;;;;;4933232;29;20040;-74
2022/01/21 12:56:42;;;;;;;4.57;2.00;;;;;;;;;;4929585;29;20038;-74
2022/01/21 12:59:14;;;;;;;5.13;2.20;;;;;;;;;;4928540;29;20396;-75
2022/01/21 13:01:40;;;;;;;4.50;2.17;;;;;;;;;;4933158;29;20400;-74
2022/01/21 13:04:25;;;;;;;4.88;2.00;;;;;;;;;;4931744;29;20412;-74
2022/01/21 13:07:08;;;;;;;3.00;1.83;;;;;;;;;;4930624;29;20062;-74
2022/01/21 13:09:54;;;;;;;5.55;2.17;;;;;;;;;;4932890;29;20497;-74
2022/01/21 13:12:23;;;;;;;4.10;2.10;;;;;;;;;;4933823;29;20024;-74
2022/01/21 13:14:56;;;;;;;3.67;1.83;;;;;;;;;;4933421;29;20036;-75
2022/01/21 13:17:22;;;;;;;4.50;1.80;;;;;;;;;;4931812;29;20026;-75
2022/01/21 13:19:50;;;;;;;3.85;1.55;;;;;;;;;;4932776;29;20027;-74
2022/01/21 13:22:16;;;;;;;4.43;2.17;;;;;;;;;;4931605;29;20024;-74
2022/01/21 13:25:05;;;;;;;5.30;1.70;;;;;;;;;;4933502;29;20024;-74
2022/01/21 13:27:32;;;;;;;2.30;1.48;;;;;;;;;;4933188;29;20445;-74
2022/01/21 13:30:09;;;;;;;3.33;1.67;;;;;;;;;;4933008;29;20108;-74
2022/01/21 13:32:35;;;;;;;4.00;1.90;;;;;;;;;;4932915;29;20459;-74
2022/01/21 13:35:12;;;;;;;2.40;1.38;;;;;;;;;;4931981;29;20020;-74
2022/01/21 13:37:39;;;;;;;3.30;1.50;;;;;;;;;;4937161;29;20031;-75
2022/01/21 13:40:08;;;;;;;3.65;1.60;;;;;;;;;;4937308;29;20020;-75
2022/01/21 13:42:35;;;;;;;2.05;1.60;;;;;;;;;;4936966;29;20047;-74
2022/01/21 13:45:08;;;;;;;3.80;1.27;;;;;;;;;;4936412;29;20047;-75
2022/01/21 13:47:39;;;;;;;4.10;1.40;;;;;;;;;;4937014;29;20032;-74
2022/01/21 13:50:08;;;;;;;5.27;1.50;;;;;;;;;;4936738;29;20028;-74
2022/01/21 13:52:53;;;;;;;2.65;1.35;;;;;;;;;;4936963;29;20042;-74
2022/01/21 13:55:28;;;;;;;5.30;1.80;;;;;;;;;;4937213;29;20485;-75
2022/01/21 13:57:56;;;;;;;3.25;1.63;;;;;;;;;;4936777;29;20042;-74
2022/01/21 14:00:41;;;;;;;4.88;1.83;;;;;;;;;;4936990;29;20016;-75
2022/01/21 14:03:13;;;;;;;5.32;1.50;;;;;;;;;;4936759;29;20040;-75
2022/01/21 14:05:46;;;;;;;3.08;1.38;;;;;;;;;;4933417;29;20451;-74
2022/01/21 14:08:13;;;;;;;6.43;1.40;;;;;;;;;;4937301;29;20036;-75
2022/01/21 14:10:40;;;;;;;1.75;1.38;;;;;;;;;;4937104;29;20032;-75
2022/01/21 14:13:06;;;;;;;6.97;1.60;;;;;;;;;;4936704;29;20028;-77
2022/01/21 14:15:33;;;;;;;4.80;1.58;;;;;;;;;;4936657;28;20027;-76
2022/01/21 14:17:59;;;;;;;4.22;1.20;;;;;;;;;;4935201;29;20032;-76
2022/01/21 14:20:27;;;;;;;4.05;1.30;;;;;;;;;;4937257;29;20020;-76
2022/01/21 14:22:54;;;;;;;4.65;1.75;;;;;;;;;;4936579;29;20524;-77
2022/01/21 14:25:20;;;;;;;4.07;1.83;;;;;;;;;;4936700;29;20020;-76
2022/01/21 14:27:48;;;;;;;4.75;1.60;;;;;;;;;;4936047;29;20496;-76
2022/01/21 14:30:15;;;;;;;6.88;1.60;;;;;;;;;;4936349;29;20034;-76
2022/01/21 14:32:42;;;;;;;3.72;1.50;;;;;;;;;;4937067;29;20038;-76
2022/01/21 14:35:13;;;;;;;2.17;1.40;;;;;;;;;;4936735;29;20024;-76
2022/01/21 14:37:41;;;;;;;4.18;1.63;;;;;;;;;;4935723;29;20019;-75
2022/01/21 14:40:08;;;;;;;2.55;1.55;;;;;;;;;;4934741;29;20028;-76
2022/01/21 14:42:35;;;;;;;5.45;1.40;;;;;;;;;;4936115;29;20377;-75
2022/01/21 14:45:10;;;;;;;4.30;1.58;;;;;;;;;;4935182;29;20039;-75
2022/01/21 14:47:36;;;;;;;3.80;1.67;;;;;;;;;;4936474;29;20042;-75
2022/01/21 14:50:23;;;;;;;7.15;1.63;;;;;;;;;;4935916;29;20027;-75
2022/01/21 14:52:49;;;;;;;2.92;1.27;;;;;;;;;;4935978;28;20098;-75
2022/01/21 14:55:22;;;;;;;2.45;1.00;;;;;;;;;;4935663;29;20473;-75
2022/01/21 14:57:59;;;;;;;5.85;1.60;;;;;;;;;;4935604;29;20503;-75
2022/01/21 15:00:39;;;;;;;5.80;2.60;;;;;;;;;;4934515;29;20513;-75
2022/01/21 15:03:05;;;;;;;2.58;1.42;;;;;;;;;;4934591;29;20031;-75
2022/01/21 15:05:31;;;;;;;3.80;1.15;;;;;;;;;;4935614;29;20324;-76
2022/01/21 15:07:58;;;;;;;3.45;1.40;;;;;;;;;;4935451;29;20042;-74
2022/01/21 15:10:43;;;;;;;2.45;1.35;;;;;;;;;;4935564;29;20511;-73
2022/01/21 15:16:08;;;;;;;5.40;1.67;;;;;;;;;;4951385;28;20046;-75
2022/01/21 15:18:34;;;;;;;3.35;1.48;;;;;;;;;;4935635;29;20031;-75
2022/01/21 15:21:01;;;;;;;3.40;1.35;;;;;;;;;;4935695;29;20500;-75
2022/01/21 15:23:28;;;;;;;3.35;1.50;;;;;;;;;;4935839;29;20092;-75
2022/01/21 15:25:54;;;;;;;4.28;1.80;;;;;;;;;;4935355;29;20098;-75
2022/01/21 15:28:20;;;;;;;2.92;1.45;;;;;;;;;;4935315;29;20034;-75
2022/01/21 15:30:47;;;;;;;4.70;1.58;;;;;;;;;;4935019;29;20026;-75
2022/01/21 15:33:13;;;;;;;6.30;1.80;;;;;;;;;;4935743;28;20030;-75
2022/01/21 15:35:40;;;;;;;4.47;1.73;;;;;;;;;;4936395;29;20032;-75
2022/01/21 15:38:06;;;;;;;3.15;1.20;;;;;;;;;;4935358;29;20020;-75
2022/01/21 15:40:34;;;;;;;4.85;1.17;;;;;;;;;;4935477;29;20404;-75
2022/01/21 15:43:00;;;;;;;4.40;1.30;;;;;;;;;;4935486;29;20026;-75
2022/01/21 15:45:27;;;;;;;5.72;1.80;;;;;;;;;;4935511;29;20074;-75
2022/01/21 15:47:53;;;;;;;5.18;1.70;;;;;;;;;;4935526;29;20036;-75
2022/01/21 15:50:20;;;;;;;2.92;1.30;;;;;;;;;;4936117;29;20519;-74
2022/01/21 15:52:47;;;;;;;4.30;1.42;;;;;;;;;;4935442;29;20436;-74
2022/01/21 15:55:13;;;;;;;4.07;1.45;;;;;;;;;;4935118;29;20413;-74